JM-0017 weather

CLOSED Lydford Airstrip
Golden Grove, Saint Ann, Jamaica

Public forecast

Using degrees Celsius for public forecast. Weather courtesy of forecast.io.

METAR (pilot weather report)

Report is more than 2 hours old.

Closest report is Norman Manley International Airport, 31.1 nm (57.5 km) SE. Retrieved 2019/03/26 18:00 UTC (2 hours ago):

MKJP 261800Z 16006KT 9999 FEW020 30/21 Q1013

TAF (pilot weather forecast)

Closest forecast is Norman Manley International Airport, 31.1 nm (57.5 km) SE. Retrieved 2019/03/26 18:18 UTC (2 hours ago):

TAF MKJP 261715Z 2618/2718 16008KT 9999 FEW022 TEMPO 2618/2624 SHRA BKN018 BECMG 2623/2701 36003KT BECMG 2714/2716 15009KT